createdAt,value
2019-02-22T00:01:17.915Z,23.78
2019-02-22T00:03:26.047Z,23.97
2019-02-22T00:05:33.109Z,24.17
2019-02-22T00:07:40.193Z,24.39
2019-02-22T00:09:49.658Z,24.63
2019-02-22T00:11:57.284Z,24.86
2019-02-22T00:14:04.897Z,24.99
2019-02-22T00:16:17.582Z,25.23
2019-02-22T00:18:36.369Z,25.38
2019-02-22T00:20:54.250Z,25.42
2019-02-22T00:23:18.818Z,25.61
2019-02-22T00:25:26.118Z,25.64
2019-02-22T00:27:33.345Z,25.69
2019-02-22T00:29:45.616Z,25.58
2019-02-22T00:31:52.850Z,25.54
2019-02-22T00:34:00.747Z,25.35
2019-02-22T00:36:08.256Z,25.34
2019-02-22T00:38:15.461Z,25.22
2019-02-22T00:40:22.924Z,25.13
2019-02-22T00:42:30.381Z,25.01
2019-02-22T00:44:38.093Z,24.94
2019-02-22T00:46:45.413Z,24.86
2019-02-22T00:48:52.688Z,24.83
2019-02-22T00:50:59.916Z,24.75
2019-02-22T00:53:07.871Z,24.65
2019-02-22T00:55:15.772Z,24.65
2019-02-22T00:57:23.000Z,24.59
2019-02-22T00:59:30.496Z,24.58
2019-02-22T01:01:58.914Z,24.46
2019-02-22T01:06:58.225Z,24.35
2019-02-22T01:09:14.695Z,24.24
2019-02-22T01:11:34.580Z,24.22
2019-02-22T01:13:48.359Z,24.15
2019-02-22T01:16:10.494Z,24.17
2019-02-22T01:22:04.095Z,24.13
2019-02-22T01:24:28.232Z,23.99
2019-02-22T01:29:14.291Z,24.01
2019-02-22T01:31:29.622Z,24.02
2019-02-22T01:33:45.566Z,23.99
2019-02-22T01:35:52.790Z,23.90
2019-02-22T01:38:00.888Z,23.87
2019-02-22T01:40:08.335Z,23.84
2019-02-22T01:42:34.970Z,23.88
2019-02-22T01:44:45.567Z,23.87
2019-02-22T01:46:53.075Z,23.83
2019-02-22T01:49:00.682Z,23.81
2019-02-22T01:51:08.117Z,23.77
2019-02-22T01:55:30.256Z,23.74
2019-02-22T01:57:37.297Z,23.74
2019-02-22T01:59:44.668Z,23.69
2019-02-22T02:01:52.287Z,23.63
2019-02-22T02:03:59.771Z,23.57
2019-02-22T02:06:06.820Z,23.56
2019-02-22T02:08:16.803Z,23.61
2019-02-22T02:10:32.250Z,23.56
2019-02-22T02:12:49.488Z,23.67
2019-02-22T02:14:56.597Z,23.74
2019-02-22T02:17:17.708Z,23.73
2019-02-22T02:19:37.432Z,23.71
2019-02-22T02:21:45.016Z,23.75
2019-02-22T02:23:52.514Z,23.70
2019-02-22T02:26:01.152Z,23.59
2019-02-22T02:28:08.956Z,23.68
2019-02-22T02:30:34.257Z,23.66
2019-02-22T02:33:26.633Z,23.71
2019-02-22T02:35:33.983Z,23.69
2019-02-22T02:37:48.883Z,23.53
2019-02-22T02:40:24.203Z,23.47
2019-02-22T02:42:57.432Z,23.40
2019-02-22T02:45:06.042Z,23.33
2019-02-22T02:47:34.015Z,23.27
2019-02-22T02:50:10.702Z,23.25
2019-02-22T02:52:18.486Z,23.23
2019-02-22T02:54:25.620Z,23.23
2019-02-22T02:56:55.849Z,23.19
2019-02-22T02:59:04.580Z,23.18
2019-02-22T03:01:12.551Z,23.12
2019-02-22T03:03:35.211Z,23.06
2019-02-22T03:06:00.274Z,23.05
2019-02-22T03:08:07.335Z,23.09
2019-02-22T03:10:14.585Z,23.01
2019-02-22T03:12:21.918Z,22.99
2019-02-22T03:14:29.758Z,22.98
2019-02-22T03:16:37.799Z,22.96
2019-02-22T03:18:44.977Z,22.98
2019-02-22T03:20:57.616Z,22.89
2019-02-22T03:23:11.932Z,22.85
2019-02-22T03:25:19.601Z,22.95
2019-02-22T03:27:44.645Z,22.91
2019-02-22T03:29:56.620Z,22.87
2019-02-22T03:32:07.225Z,22.84
2019-02-22T03:34:25.777Z,22.95
2019-02-22T03:36:36.411Z,22.99
2019-02-22T03:38:58.603Z,23.18
2019-02-22T03:41:07.285Z,23.36
2019-02-22T03:43:15.908Z,23.53
2019-02-22T03:45:23.384Z,23.71
2019-02-22T03:47:44.117Z,23.86
2019-02-22T03:49:59.911Z,23.83
2019-02-22T03:52:27.964Z,23.72
2019-02-22T03:54:35.134Z,23.58
2019-02-22T03:56:42.545Z,23.49
2019-02-22T03:58:50.923Z,23.34
2019-02-22T04:00:59.800Z,23.26
2019-02-22T04:03:07.101Z,23.23
2019-02-22T04:05:16.534Z,23.13
2019-02-22T04:07:24.507Z,22.99
2019-02-22T04:09:40.893Z,23.06
2019-02-22T04:11:56.563Z,23.02
2019-02-22T04:14:07.088Z,22.93
2019-02-22T04:16:27.919Z,22.89
2019-02-22T04:18:43.465Z,22.84
2019-02-22T04:20:51.368Z,22.81
2019-02-22T04:23:03.523Z,22.75
2019-02-22T04:25:10.818Z,22.66
2019-02-22T04:27:21.555Z,22.70
2019-02-22T04:29:36.859Z,22.77
2019-02-22T04:31:45.105Z,22.93
2019-02-22T04:33:57.436Z,23.09
2019-02-22T04:36:04.825Z,23.28
2019-02-22T04:38:14.419Z,23.44
2019-02-22T04:40:40.943Z,23.59
2019-02-22T04:43:16.811Z,23.67
2019-02-22T04:45:35.684Z,23.60
2019-02-22T04:47:57.661Z,23.45
2019-02-22T04:50:10.525Z,23.39
2019-02-22T04:52:30.193Z,23.29
2019-02-22T04:54:42.532Z,23.23
2019-02-22T04:57:08.068Z,23.14
2019-02-22T04:59:31.324Z,23.04
2019-02-22T05:01:44.918Z,23.00
2019-02-22T05:04:10.398Z,22.92
2019-02-22T05:06:21.726Z,22.84
2019-02-22T05:08:36.610Z,22.83
2019-02-22T05:10:46.425Z,22.84
2019-02-22T05:12:56.951Z,22.75
2019-02-22T05:15:12.650Z,22.78
2019-02-22T05:17:18.218Z,22.66
2019-02-22T05:19:37.691Z,22.65
2019-02-22T05:21:52.433Z,22.70
2019-02-22T05:24:06.829Z,22.84
2019-02-22T05:26:30.388Z,23.05
2019-02-22T05:28:42.006Z,23.23
2019-02-22T05:30:59.733Z,23.41
2019-02-22T05:33:20.296Z,23.54
2019-02-22T05:35:39.983Z,23.57
2019-02-22T05:37:54.399Z,23.43
2019-02-22T05:40:08.385Z,23.32
2019-02-22T05:42:46.612Z,23.21
2019-02-22T05:44:56.535Z,23.11
2019-02-22T05:47:45.965Z,22.98
2019-02-22T05:50:11.191Z,22.95
2019-02-22T05:51:39.015Z,22.82
2019-02-22T05:53:48.184Z,22.73
2019-02-22T05:58:47.277Z,22.62
2019-02-22T06:00:54.713Z,22.60
2019-02-22T06:03:32.215Z,22.52
2019-02-22T06:05:45.348Z,22.52
2019-02-22T06:08:04.282Z,22.68
2019-02-22T06:10:13.723Z,22.77
2019-02-22T06:12:34.284Z,23.00
2019-02-22T06:14:41.704Z,23.23
2019-02-22T06:16:58.298Z,23.40
2019-02-22T06:20:12.425Z,23.59
2019-02-22T06:21:18.799Z,23.59
2019-02-22T06:23:30.770Z,23.54
2019-02-22T06:25:38.073Z,23.41
2019-02-22T06:27:45.466Z,23.31
2019-02-22T06:29:52.867Z,23.21
2019-02-22T06:32:00.055Z,23.18
2019-02-22T06:34:08.152Z,23.10
2019-02-22T06:36:34.619Z,23.01
2019-02-22T06:38:50.166Z,22.86
2019-02-22T06:41:17.907Z,22.74
2019-02-22T06:44:50.446Z,22.68
2019-02-22T06:46:21.441Z,22.61
2019-02-22T06:48:39.765Z,22.55
2019-02-22T06:50:51.217Z,22.54
2019-02-22T06:53:01.779Z,22.69
2019-02-22T06:55:11.213Z,22.79
2019-02-22T06:57:22.863Z,23.01
2019-02-22T06:59:37.074Z,23.19
2019-02-22T07:01:50.940Z,23.35
2019-02-22T07:04:27.210Z,23.39
2019-02-22T07:06:42.622Z,23.33
2019-02-22T07:08:59.222Z,23.20
2019-02-22T07:11:15.451Z,23.09
2019-02-22T07:13:24.512Z,22.98
2019-02-22T07:15:31.971Z,22.96
2019-02-22T07:17:39.357Z,22.84
2019-02-22T07:19:46.875Z,22.68
2019-02-22T07:21:54.312Z,22.62
2019-02-22T07:24:02.774Z,22.61
2019-02-22T07:26:10.057Z,22.55
2019-02-22T07:28:17.351Z,22.48
2019-02-22T07:30:25.305Z,22.45
2019-02-22T07:32:32.530Z,22.55
2019-02-22T07:34:39.682Z,22.74
2019-02-22T07:36:48.249Z,22.94
2019-02-22T07:38:55.474Z,23.08
2019-02-22T07:41:03.445Z,23.30
2019-02-22T07:43:11.795Z,23.51
2019-02-22T07:45:19.525Z,23.45
2019-02-22T07:47:29.238Z,23.35
2019-02-22T07:49:35.907Z,23.23
2019-02-22T07:51:43.291Z,23.14
2019-02-22T07:53:50.525Z,23.04
2019-02-22T07:55:57.738Z,22.98
2019-02-22T07:58:05.074Z,22.90
2019-02-22T08:00:14.662Z,22.78
2019-02-22T08:02:22.873Z,22.70
2019-02-22T08:04:30.399Z,22.64
2019-02-22T08:06:37.698Z,22.53
2019-02-22T08:08:47.789Z,22.51
2019-02-22T08:10:54.381Z,22.43
2019-02-22T08:13:01.711Z,22.40
2019-02-22T08:15:10.177Z,22.34
2019-02-22T08:17:17.400Z,22.30
2019-02-22T08:19:24.710Z,22.31
2019-02-22T08:21:32.662Z,22.46
2019-02-22T08:23:39.978Z,22.61
2019-02-22T08:25:46.987Z,22.80
2019-02-22T08:27:55.085Z,23.04
2019-02-22T08:30:02.893Z,23.12
2019-02-22T08:32:10.137Z,23.18
2019-02-22T08:34:17.363Z,23.01
2019-02-22T08:36:24.731Z,22.99
2019-02-22T08:38:32.749Z,22.91
2019-02-22T08:40:39.917Z,22.87
2019-02-22T08:42:48.079Z,22.75
2019-02-22T08:44:55.409Z,22.67
2019-02-22T08:47:02.713Z,22.58
2019-02-22T08:49:09.983Z,22.52
2019-02-22T08:51:17.313Z,22.54
2019-02-22T08:53:24.523Z,22.66
2019-02-22T08:55:31.702Z,22.79
2019-02-22T08:57:38.750Z,22.99
2019-02-22T08:59:45.785Z,23.18
2019-02-22T09:01:53.168Z,23.35
2019-02-22T09:04:00.455Z,23.29
2019-02-22T09:06:07.848Z,23.21
2019-02-22T09:08:16.335Z,23.01
2019-02-22T09:10:23.560Z,22.89
2019-02-22T09:12:31.153Z,22.87
2019-02-22T09:14:38.938Z,22.81
2019-02-22T09:16:46.325Z,22.70
2019-02-22T09:18:54.409Z,22.62
2019-02-22T09:21:01.620Z,22.52
2019-02-22T09:23:09.383Z,22.42
2019-02-22T09:25:17.056Z,22.33
2019-02-22T09:27:24.159Z,22.31
2019-02-22T09:29:31.494Z,22.35
2019-02-22T09:31:38.823Z,22.35
2019-02-22T09:33:45.862Z,22.46
2019-02-22T09:35:53.235Z,22.65
2019-02-22T09:38:00.456Z,22.87
2019-02-22T09:40:08.169Z,23.04
2019-02-22T09:42:15.332Z,23.31
2019-02-22T09:44:22.570Z,23.34
2019-02-22T09:46:29.984Z,23.47
2019-02-22T09:48:38.275Z,23.57
2019-02-22T09:50:45.492Z,23.44
2019-02-22T09:52:53.352Z,23.39
2019-02-22T09:55:00.631Z,23.23
2019-02-22T09:57:09.255Z,23.09
2019-02-22T09:59:16.584Z,22.99
2019-02-22T10:01:23.923Z,22.93
2019-02-22T10:03:31.114Z,22.83
2019-02-22T10:05:39.391Z,22.76
2019-02-22T10:07:46.467Z,22.66
2019-02-22T10:09:53.752Z,22.60
2019-02-22T10:12:01.043Z,22.54
2019-02-22T10:14:09.076Z,22.48
2019-02-22T10:16:16.451Z,22.47
2019-02-22T10:18:23.664Z,22.36
2019-02-22T10:20:30.932Z,22.31
2019-02-22T10:22:39.139Z,22.31
2019-02-22T10:24:46.243Z,22.23
2019-02-22T10:26:53.521Z,22.18
2019-02-22T10:29:00.875Z,22.31
2019-02-22T10:31:08.273Z,22.45
2019-02-22T10:33:15.762Z,22.59
2019-02-22T10:35:23.241Z,22.84
2019-02-22T10:37:30.362Z,22.91
2019-02-22T10:39:37.641Z,22.99
2019-02-22T10:41:44.940Z,23.15
2019-02-22T10:43:52.183Z,23.34
2019-02-22T10:45:59.470Z,23.53
2019-02-22T10:48:06.684Z,23.65
2019-02-22T10:50:15.666Z,23.60
2019-02-22T10:52:22.735Z,23.41
2019-02-22T10:54:33.065Z,23.33
2019-02-22T10:56:39.734Z,23.21
2019-02-22T10:58:47.028Z,23.03
2019-02-22T11:00:54.179Z,22.98
2019-02-22T11:03:01.989Z,22.92
2019-02-22T11:05:09.175Z,22.79
2019-02-22T11:07:16.539Z,22.70
2019-02-22T11:09:23.848Z,22.62
2019-02-22T11:11:31.001Z,22.56
2019-02-22T11:13:38.905Z,22.52
2019-02-22T11:15:47.149Z,22.45
2019-02-22T11:17:54.391Z,22.36
2019-02-22T11:20:01.335Z,22.35
2019-02-22T11:22:09.247Z,22.25
2019-02-22T11:24:17.165Z,22.24
2019-02-22T11:26:24.344Z,22.16
2019-02-22T11:28:31.804Z,22.18
2019-02-22T11:30:40.062Z,22.24
2019-02-22T11:32:47.379Z,22.45
2019-02-22T11:34:55.411Z,22.61
2019-02-22T11:37:03.280Z,22.83
2019-02-22T11:39:10.899Z,22.88
2019-02-22T11:41:18.034Z,22.98
2019-02-22T11:43:25.979Z,23.02
2019-02-22T11:45:33.189Z,23.13
2019-02-22T11:47:41.444Z,23.20
2019-02-22T11:49:48.552Z,23.17
2019-02-22T11:51:57.247Z,23.12
2019-02-22T11:54:04.531Z,23.00
2019-02-22T11:56:11.658Z,22.88
2019-02-22T11:58:19.660Z,22.77
2019-02-22T12:00:27.710Z,22.71
2019-02-22T12:02:35.024Z,22.62
2019-02-22T12:04:42.427Z,22.55
2019-02-22T12:06:49.700Z,22.51
2019-02-22T12:08:57.166Z,22.47
2019-02-22T12:11:04.387Z,22.44
2019-02-22T12:13:11.602Z,22.42
2019-02-22T12:15:18.968Z,22.37
2019-02-22T12:17:26.753Z,22.38
2019-02-22T12:19:34.023Z,22.43
2019-02-22T12:21:41.239Z,22.54
2019-02-22T12:23:49.381Z,22.69
2019-02-22T12:25:56.600Z,22.87
2019-02-22T12:28:03.987Z,23.09
2019-02-22T12:30:13.360Z,23.17
2019-02-22T12:32:20.769Z,23.24
2019-02-22T12:34:27.850Z,23.23
2019-02-22T12:36:35.130Z,23.31
2019-02-22T12:38:42.520Z,23.43
2019-02-22T12:40:49.443Z,23.52
2019-02-22T12:42:56.912Z,23.63
2019-02-22T12:45:04.075Z,23.62
2019-02-22T12:47:11.304Z,23.71
2019-02-22T12:49:18.477Z,23.78
2019-02-22T12:51:25.996Z,23.83
2019-02-22T12:53:33.339Z,23.85
2019-02-22T12:55:40.705Z,23.97
2019-02-22T12:57:47.960Z,23.98
2019-02-22T12:59:55.435Z,23.93
2019-02-22T13:02:02.569Z,24.16
2019-02-22T13:04:10.070Z,24.33
2019-02-22T13:06:17.566Z,24.48
2019-02-22T13:08:24.740Z,24.53
2019-02-22T13:10:32.055Z,24.68
2019-02-22T13:12:39.226Z,24.76
2019-02-22T13:14:46.538Z,24.82
2019-02-22T13:16:53.805Z,24.87
2019-02-22T13:19:01.521Z,24.93
2019-02-22T13:21:08.879Z,24.76
2019-02-22T13:23:16.205Z,24.61
2019-02-22T13:25:23.352Z,24.45
2019-02-22T13:27:30.800Z,24.31
2019-02-22T13:29:37.969Z,24.23
2019-02-22T13:31:45.331Z,24.08
2019-02-22T13:33:52.507Z,24.00
2019-02-22T13:36:00.855Z,23.91
2019-02-22T13:38:09.683Z,23.90
2019-02-22T13:40:17.199Z,23.99
2019-02-22T13:42:24.693Z,24.19
2019-02-22T13:44:39.751Z,24.16
2019-02-22T13:46:47.119Z,24.33
2019-02-22T13:48:54.432Z,24.51
2019-02-22T13:51:01.963Z,24.69
2019-02-22T13:53:09.345Z,24.63
2019-02-22T13:55:16.716Z,24.54
2019-02-22T13:57:23.793Z,24.46
2019-02-22T13:59:31.299Z,24.42
2019-02-22T14:01:38.276Z,24.34
2019-02-22T14:03:46.016Z,24.30
2019-02-22T14:05:53.561Z,24.24
2019-02-22T14:08:01.637Z,24.11
2019-02-22T14:10:09.151Z,24.07
2019-02-22T14:13:42.538Z,24.14
2019-02-22T14:14:42.671Z,24.30
2019-02-22T14:17:27.244Z,24.48
2019-02-22T14:19:45.644Z,24.59
2019-02-22T14:22:06.955Z,24.79
2019-02-22T14:24:30.406Z,24.68
2019-02-22T14:26:43.663Z,24.65
2019-02-22T14:29:02.571Z,24.64
2019-02-22T14:31:18.271Z,24.60
2019-02-22T14:33:34.385Z,24.49
2019-02-22T14:35:41.448Z,24.43
2019-02-22T14:38:05.659Z,24.37
2019-02-22T14:40:28.015Z,24.32
2019-02-22T14:42:51.094Z,24.31
2019-02-22T14:45:01.158Z,24.30
2019-02-22T14:47:21.484Z,24.25
2019-02-22T14:49:56.633Z,24.24
2019-02-22T14:52:18.103Z,24.54
2019-02-22T14:54:35.627Z,24.74
2019-02-22T14:59:05.389Z,25.20
2019-02-22T15:01:13.092Z,25.39
2019-02-22T15:03:31.150Z,25.35
2019-02-22T15:06:13.350Z,25.22
2019-02-22T15:08:25.331Z,25.25
2019-02-22T15:10:45.568Z,25.24
2019-02-22T15:13:01.833Z,25.14
2019-02-22T15:15:10.218Z,25.17
2019-02-22T15:17:39.389Z,25.10
2019-02-22T15:19:46.649Z,25.03
2019-02-22T15:21:54.775Z,24.96
2019-02-22T15:24:17.531Z,24.94
2019-02-22T15:26:23.272Z,24.91
2019-02-22T15:28:30.472Z,24.87
2019-02-22T15:30:41.581Z,24.94
2019-02-22T15:32:49.391Z,25.05
2019-02-22T15:34:56.709Z,25.19
2019-02-22T15:37:11.719Z,25.32
2019-02-22T15:39:30.356Z,25.46
2019-02-22T15:41:37.454Z,25.50
2019-02-22T15:43:44.790Z,25.58
2019-02-22T15:45:52.418Z,25.75
2019-02-22T15:47:59.640Z,25.82
2019-02-22T15:50:07.230Z,25.86
2019-02-22T15:52:14.455Z,25.99
2019-02-22T15:54:21.824Z,25.92
2019-02-22T15:56:35.400Z,25.84
2019-02-22T15:58:43.435Z,25.85
2019-02-22T16:00:50.945Z,25.85
2019-02-22T16:02:58.481Z,25.83
2019-02-22T16:05:15.921Z,25.74
2019-02-22T16:07:54.903Z,25.69
2019-02-22T16:09:59.957Z,25.62
2019-02-22T16:12:07.177Z,25.62
2019-02-22T16:14:14.582Z,25.59
2019-02-22T16:16:23.523Z,25.49
2019-02-22T16:18:31.503Z,25.52
2019-02-22T16:20:38.856Z,25.50
2019-02-22T16:22:46.771Z,25.49
2019-02-22T16:24:54.052Z,25.50
2019-02-22T16:27:04.565Z,25.45
2019-02-22T16:29:11.992Z,25.45
2019-02-22T16:31:20.210Z,25.45
2019-02-22T16:33:27.467Z,25.48
2019-02-22T16:35:34.913Z,25.65
2019-02-22T16:37:42.304Z,25.79
2019-02-22T16:39:55.619Z,25.86
2019-02-22T16:42:16.495Z,26.00
2019-02-22T16:44:24.121Z,26.13
2019-02-22T16:46:35.062Z,26.19
2019-02-22T16:48:41.320Z,26.20
2019-02-22T16:50:48.585Z,26.25
2019-02-22T16:52:56.252Z,26.31
2019-02-22T16:55:03.643Z,26.28
2019-02-22T16:57:10.983Z,26.21
2019-02-22T16:59:18.265Z,26.13
2019-02-22T17:01:25.996Z,26.03
2019-02-22T17:03:33.808Z,25.97
2019-02-22T17:05:41.328Z,25.91
2019-02-22T17:07:48.712Z,25.90
2019-02-22T17:09:55.807Z,25.88
2019-02-22T17:12:06.372Z,25.81
2019-02-22T17:14:30.690Z,25.83
2019-02-22T17:16:45.577Z,25.82
2019-02-22T17:18:48.410Z,25.80
2019-02-22T17:20:55.435Z,25.78
2019-02-22T17:23:02.619Z,25.79
2019-02-22T17:25:11.576Z,25.79
2019-02-22T17:27:18.849Z,25.78
2019-02-22T17:29:26.513Z,25.82
2019-02-22T17:31:33.756Z,25.51
2019-02-22T17:33:41.525Z,25.74
2019-02-22T17:35:48.787Z,25.79
2019-02-22T17:37:56.191Z,25.77
2019-02-22T17:40:03.475Z,25.77
2019-02-22T17:42:10.920Z,25.73
2019-02-22T17:44:19.781Z,25.71
2019-02-22T17:46:27.089Z,25.73
2019-02-22T17:48:35.182Z,25.75
2019-02-22T17:50:57.053Z,25.71
2019-02-22T17:55:29.591Z,25.68
2019-02-22T17:57:36.921Z,25.72
2019-02-22T17:59:48.587Z,25.69
2019-02-22T18:01:56.993Z,25.69
2019-02-22T18:04:05.281Z,25.67
2019-02-22T18:06:12.564Z,25.67
2019-02-22T18:08:20.025Z,25.68
2019-02-22T18:10:27.136Z,25.68
2019-02-22T18:12:34.292Z,25.69
2019-02-22T18:14:41.534Z,25.74
2019-02-22T18:16:48.771Z,25.74
2019-02-22T18:18:55.922Z,25.73
2019-02-22T18:21:03.512Z,25.76
2019-02-22T18:23:10.822Z,25.78
2019-02-22T18:25:18.585Z,25.79
2019-02-22T18:27:26.163Z,25.77
2019-02-22T18:29:35.684Z,25.77
2019-02-22T18:31:44.384Z,25.95
2019-02-22T18:33:51.881Z,26.15
2019-02-22T18:35:59.499Z,26.29
2019-02-22T18:38:06.844Z,26.42
2019-02-22T18:40:15.237Z,26.52
2019-02-22T18:42:22.626Z,26.65
2019-02-22T18:44:30.080Z,26.75
2019-02-22T18:46:37.409Z,26.80
2019-02-22T18:48:44.445Z,26.82
2019-02-22T18:50:51.761Z,26.81
2019-02-22T18:52:59.568Z,26.73
2019-02-22T18:55:07.731Z,26.65
2019-02-22T18:57:14.988Z,26.64
2019-02-22T18:59:22.271Z,26.55
2019-02-22T19:01:29.540Z,26.50
2019-02-22T19:03:37.071Z,26.38
2019-02-22T19:05:44.246Z,26.35
2019-02-22T19:07:51.468Z,26.31
2019-02-22T19:09:58.946Z,26.32
2019-02-22T19:12:06.429Z,26.35
2019-02-22T19:14:13.921Z,26.24
2019-02-22T19:16:20.836Z,26.17
2019-02-22T19:18:30.300Z,26.11
2019-02-22T19:20:37.505Z,26.01
2019-02-22T19:22:44.789Z,26.05
2019-02-22T19:24:52.453Z,26.03
2019-02-22T19:27:00.054Z,25.98
2019-02-22T19:29:07.793Z,25.89
2019-02-22T19:31:15.336Z,25.96
2019-02-22T19:33:22.457Z,25.99
2019-02-22T19:35:29.736Z,25.93
2019-02-22T19:37:41.780Z,25.97
2019-02-22T19:39:49.602Z,25.90
2019-02-22T19:41:56.792Z,25.97
2019-02-22T19:44:04.142Z,25.90
2019-02-22T19:46:12.067Z,25.88
2019-02-22T19:48:19.289Z,25.85
2019-02-22T19:50:27.860Z,25.82
2019-02-22T19:52:35.178Z,25.87
2019-02-22T19:54:44.759Z,25.85
2019-02-22T19:56:51.128Z,25.83
2019-02-22T19:58:59.194Z,25.81
2019-02-22T20:01:06.812Z,25.82
2019-02-22T20:03:14.143Z,25.87
2019-02-22T20:05:21.299Z,25.87
2019-02-22T20:07:29.007Z,25.86
2019-02-22T20:09:36.329Z,25.89
2019-02-22T20:11:43.453Z,25.89
2019-02-22T20:13:51.153Z,25.94
2019-02-22T20:15:58.378Z,25.90
2019-02-22T20:18:08.257Z,25.92
2019-02-22T20:20:16.493Z,25.93
2019-02-22T20:22:24.808Z,26.01
2019-02-22T20:24:32.025Z,26.15
2019-02-22T20:26:39.174Z,26.36
2019-02-22T20:28:46.557Z,26.55
2019-02-22T20:30:53.872Z,26.66
2019-02-22T20:33:01.140Z,26.75
2019-02-22T20:35:09.755Z,26.80
2019-02-22T20:37:17.131Z,26.83
2019-02-22T20:39:25.971Z,26.84
2019-02-22T20:41:33.097Z,26.80
2019-02-22T20:43:40.324Z,26.70
2019-02-22T20:45:48.089Z,26.61
2019-02-22T20:48:04.806Z,26.60
2019-02-22T20:50:07.794Z,26.52
2019-02-22T20:52:15.277Z,26.43
2019-02-22T20:54:30.032Z,26.34
2019-02-22T20:56:37.347Z,26.33
2019-02-22T20:59:01.014Z,26.26
2019-02-22T21:01:14.862Z,26.22
2019-02-22T21:03:21.063Z,26.15
2019-02-22T21:05:28.816Z,26.11
2019-02-22T21:10:19.411Z,26.06
2019-02-22T21:12:30.868Z,25.97
2019-02-22T21:14:39.983Z,25.94
2019-02-22T21:17:14.593Z,25.86
2019-02-22T21:19:22.107Z,25.81
2019-02-22T21:21:33.198Z,25.80
2019-02-22T21:23:57.308Z,25.82
2019-02-22T21:26:24.659Z,25.79
2019-02-22T21:28:48.579Z,25.80
2019-02-22T21:30:56.153Z,25.78
2019-02-22T21:33:03.406Z,25.75
2019-02-22T21:35:10.531Z,25.76
2019-02-22T21:37:31.083Z,25.72
2019-02-22T21:39:45.604Z,25.66
2019-02-22T21:42:39.072Z,25.63
2019-02-22T21:44:51.384Z,25.59
2019-02-22T21:46:58.618Z,25.45
2019-02-22T21:49:05.654Z,25.53
2019-02-22T21:51:14.740Z,25.65
2019-02-22T21:53:28.516Z,25.74
2019-02-22T21:55:36.405Z,26.01
2019-02-22T22:00:20.400Z,26.43
2019-02-22T22:02:32.729Z,26.46
2019-02-22T22:04:51.760Z,26.45
2019-02-22T22:07:05.467Z,26.40
2019-02-22T22:09:53.442Z,26.34
2019-02-22T22:11:37.825Z,26.26
2019-02-22T22:13:49.880Z,26.17
2019-02-22T22:16:06.304Z,26.09
2019-02-22T22:18:14.681Z,26.02
2019-02-22T22:20:46.228Z,25.93
2019-02-22T22:22:58.765Z,25.77
2019-02-22T22:25:06.042Z,25.76
2019-02-22T22:27:18.462Z,25.61
2019-02-22T22:29:37.764Z,25.62
2019-02-22T22:31:45.053Z,25.51
2019-02-22T22:34:17.500Z,25.45
2019-02-22T22:36:39.300Z,25.43
2019-02-22T22:38:54.887Z,25.28
2019-02-22T22:41:02.138Z,25.34
2019-02-22T22:43:13.002Z,25.33
2019-02-22T22:45:20.228Z,25.27
2019-02-22T22:47:43.538Z,25.25
2019-02-22T22:50:03.246Z,25.18
2019-02-22T22:52:25.498Z,25.21
2019-02-22T22:54:51.087Z,25.17
2019-02-22T22:57:07.365Z,25.18
2019-02-22T22:59:41.853Z,25.24
2019-02-22T23:01:47.187Z,25.24
2019-02-22T23:03:54.732Z,25.24
2019-02-22T23:06:02.242Z,25.26
2019-02-22T23:08:46.794Z,25.44
2019-02-22T23:11:11.799Z,25.59
2019-02-22T23:13:19.510Z,25.82
2019-02-22T23:15:27.037Z,25.96
2019-02-22T23:17:43.389Z,26.04
2019-02-22T23:19:55.158Z,26.12
2019-02-22T23:22:02.421Z,26.02
2019-02-22T23:24:10.524Z,26.06
2019-02-22T23:26:17.753Z,25.96
2019-02-22T23:28:25.108Z,25.95
2019-02-22T23:30:32.951Z,25.77
2019-02-22T23:32:40.874Z,25.74
2019-02-22T23:34:53.700Z,25.69
2019-02-22T23:37:01.683Z,25.61
2019-02-22T23:39:09.969Z,25.74
2019-02-22T23:41:18.521Z,25.70
2019-02-22T23:43:26.546Z,25.69
2019-02-22T23:45:33.931Z,25.59
2019-02-22T23:47:50.205Z,25.59
2019-02-22T23:50:09.326Z,25.62
2019-02-22T23:52:24.784Z,25.53
2019-02-22T23:54:54.206Z,25.52
2019-02-22T23:57:17.400Z,25.51
2019-02-22T23:59:27.828Z,25.40
